This is the latest recevied weather packets stored in our database for station/object 5B4APJ-13. If no packets are shown the sender has not sent any weather packets the latest 10 day(s).
| Time | Temp. | Humidity | Pressure | Rain* | Wind** | Luminosity | Snow |
|---|---|---|---|---|---|---|---|
| 1777365430 | 23.89° C | 56% | 1013.3 hPa | 0 mm | 1.79 m/s, 97° | 780 W/m² | - |
| 1777365130 | 24.44° C | 54% | 1013.3 hPa | 0 mm | 1.79 m/s, 171° | 767 W/m² | - |
| 1777364830 | 23.89° C | 55% | 1013.1 hPa | 0 mm | 2.68 m/s, 125° | 749 W/m² | - |
| 1777364530 | 23.89° C | 52% | 1013.5 hPa | 0 mm | 2.68 m/s, 86° | 748 W/m² | - |
| 1777364230 | 23.33° C | 53% | 1013.2 hPa | 0 mm | 0 m/s | 722 W/m² | - |
| 1777363930 | 23.33° C | 52% | 1013.3 hPa | 0 mm | 1.34 m/s, 31° | 743 W/m² | - |
| 1777363630 | -17.78° C | 100% | 1013.4 hPa | 0 mm | 0 m/s | - | - |
| 1777363330 | -17.78° C | 100% | 1013.4 hPa | 0 mm | 0 m/s | - | - |
| 1777363030 | 23.33° C | 51% | 1013.5 hPa | 0 mm | 3.13 m/s, 90° | 669 W/m² | - |
| 1777362731 | 23.33° C | 51% | 1013.7 hPa | 0 mm | 3.13 m/s, 90° | 669 W/m² | - |
| 1777362430 | -17.78° C | 100% | 1013.6 hPa | 0 mm | 0 m/s | - | - |
| 1777362130 | -17.78° C | 100% | 1013.6 hPa | 0 mm | 0 m/s | - | - |
| 1777361830 | -17.78° C | 100% | 1013.7 hPa | 0 mm | 0 m/s | - | - |
| 1777361530 | 23.33° C | 54% | 1013.5 hPa | 0 mm | 1.79 m/s, 86° | 617 W/m² | - |
| 1777361231 | 23.33° C | 54% | 1013.5 hPa | 0 mm | 1.79 m/s, 86° | 617 W/m² | - |
| 1777360930 | 23.33° C | 54% | 1013.6 hPa | 0 mm | 1.79 m/s, 61° | 605 W/m² | - |
| 1777360631 | -17.78° C | 100% | 1013.3 hPa | 0 mm | 0 m/s | - | - |
| 1777360330 | 22.78° C | 58% | 1013.5 hPa | 0 mm | 3.13 m/s, 114° | 565 W/m² | - |
| 1777360030 | 22.78° C | 58% | 1013.5 hPa | 0 mm | 3.13 m/s, 114° | 565 W/m² | - |
| 1777359730 | 22.78° C | 58% | 1013.5 hPa | 0 mm | 3.58 m/s, 101° | 559 W/m² | - |
| 1777359430 | 22.78° C | 59% | 1013.4 hPa | 0 mm | 3.13 m/s, 80° | 540 W/m² | - |
| 1777359131 | 22.78° C | 58% | 1013.6 hPa | 0 mm | 4.02 m/s, 78° | 539 W/m² | - |
| 1777358831 | 22.78° C | 56% | 1013.5 hPa | 0 mm | 2.24 m/s, 61° | 518 W/m² | - |
| 1777358531 | -17.78° C | 100% | 1013.3 hPa | 0 mm | 0 m/s | - | - |
| 1777358231 | 23.89° C | 38% | 1013.5 hPa | 0 mm | 1.34 m/s, 32° | 494 W/m² | - |
* Rain latest hour (hover to see other rain measurements)
** Current wind speed in m/s (hover to see current wind gust speed)